sensor_id;sensor_type;location;lat;lon;timestamp;pressure;altitude;pressure_sealevel;temperature;humidity
57114;BME280;42994;51.606;9.988;2023-12-14T00:00:15;98562.91;;;5.34;100.00
57114;BME280;42994;51.606;9.988;2023-12-14T00:02:46;98566.94;;;5.13;100.00
57114;BME280;42994;51.606;9.988;2023-12-14T00:05:15;98568.25;;;5.17;100.00
57114;BME280;42994;51.606;9.988;2023-12-14T00:07:43;98568.25;;;5.17;100.00
57114;BME280;42994;51.606;9.988;2023-12-14T00:10:10;98577.88;;;5.18;100.00
57114;BME280;42994;51.606;9.988;2023-12-14T00:12:38;98582.34;;;5.26;100.00
57114;BME280;42994;51.606;9.988;2023-12-14T00:15:09;98585.19;;;5.25;100.00
57114;BME280;42994;51.606;9.988;2023-12-14T00:17:36;98590.31;;;5.34;100.00
57114;BME280;42994;51.606;9.988;2023-12-14T00:20:03;98591.31;;;4.92;100.00
57114;BME280;42994;51.606;9.988;2023-12-14T00:22:33;98593.00;;;4.93;100.00
57114;BME280;42994;51.606;9.988;2023-12-14T00:25:01;98601.13;;;4.84;100.00
57114;BME280;42994;51.606;9.988;2023-12-14T00:27:29;98609.75;;;4.94;100.00
57114;BME280;42994;51.606;9.988;2023-12-14T00:29:58;98610.41;;;4.79;100.00
57114;BME280;42994;51.606;9.988;2023-12-14T00:32:24;98630.84;;;4.95;100.00
57114;BME280;42994;51.606;9.988;2023-12-14T00:34:51;98635.66;;;4.92;100.00
57114;BME280;42994;51.606;9.988;2023-12-14T00:37:18;98645.63;;;4.90;100.00
57114;BME280;42994;51.606;9.988;2023-12-14T00:39:47;98634.81;;;4.75;100.00
57114;BME280;42994;51.606;9.988;2023-12-14T00:42:15;98646.41;;;4.74;100.00
57114;BME280;42994;51.606;9.988;2023-12-14T00:44:43;98649.75;;;4.92;100.00
57114;BME280;42994;51.606;9.988;2023-12-14T00:47:10;98656.91;;;4.92;100.00
57114;BME280;42994;51.606;9.988;2023-12-14T00:49:37;98668.19;;;4.94;100.00
57114;BME280;42994;51.606;9.988;2023-12-14T00:52:04;98673.03;;;4.98;100.00
57114;BME280;42994;51.606;9.988;2023-12-14T00:54:33;98680.81;;;5.00;100.00
57114;BME280;42994;51.606;9.988;2023-12-14T00:57:01;98686.31;;;5.07;100.00
57114;BME280;42994;51.606;9.988;2023-12-14T00:59:29;98683.78;;;4.89;100.00
57114;BME280;42994;51.606;9.988;2023-12-14T01:01:56;98696.94;;;4.98;100.00
57114;BME280;42994;51.606;9.988;2023-12-14T01:04:23;98699.59;;;4.98;100.00
57114;BME280;42994;51.606;9.988;2023-12-14T01:06:50;98690.72;;;4.73;100.00
57114;BME280;42994;51.606;9.988;2023-12-14T01:09:17;98703.38;;;4.96;100.00
57114;BME280;42994;51.606;9.988;2023-12-14T01:11:44;98716.47;;;4.81;100.00
57114;BME280;42994;51.606;9.988;2023-12-14T01:14:12;98721.88;;;4.55;100.00
57114;BME280;42994;51.606;9.988;2023-12-14T01:16:40;98726.50;;;4.53;100.00
57114;BME280;42994;51.606;9.988;2023-12-14T01:19:08;98738.31;;;4.67;100.00
57114;BME280;42994;51.606;9.988;2023-12-14T01:21:35;98738.16;;;4.68;100.00
57114;BME280;42994;51.606;9.988;2023-12-14T01:24:01;98751.50;;;4.76;100.00
57114;BME280;42994;51.606;9.988;2023-12-14T01:26:28;98758.81;;;4.82;100.00
57114;BME280;42994;51.606;9.988;2023-12-14T01:28:58;98771.38;;;4.72;100.00
57114;BME280;42994;51.606;9.988;2023-12-14T01:31:26;98755.19;;;4.49;100.00
57114;BME280;42994;51.606;9.988;2023-12-14T01:33:53;98759.88;;;4.63;100.00
57114;BME280;42994;51.606;9.988;2023-12-14T01:36:21;98771.38;;;4.72;100.00
57114;BME280;42994;51.606;9.988;2023-12-14T01:38:49;98779.63;;;4.61;100.00
57114;BME280;42994;51.606;9.988;2023-12-14T01:41:17;98791.31;;;4.76;100.00
57114;BME280;42994;51.606;9.988;2023-12-14T01:43:44;98778.50;;;4.37;100.00
57114;BME280;42994;51.606;9.988;2023-12-14T01:46:11;98791.75;;;4.29;100.00
57114;BME280;42994;51.606;9.988;2023-12-14T01:48:39;98789.88;;;4.56;100.00
57114;BME280;42994;51.606;9.988;2023-12-14T01:51:06;98789.41;;;4.60;100.00
57114;BME280;42994;51.606;9.988;2023-12-14T01:53:33;98803.50;;;4.61;100.00
57114;BME280;42994;51.606;9.988;2023-12-14T01:56:00;98814.28;;;4.59;100.00
57114;BME280;42994;51.606;9.988;2023-12-14T01:58:28;98801.00;;;4.51;100.00
57114;BME280;42994;51.606;9.988;2023-12-14T02:01:03;98805.28;;;4.52;100.00
57114;BME280;42994;51.606;9.988;2023-12-14T02:03:32;98822.06;;;4.53;100.00
57114;BME280;42994;51.606;9.988;2023-12-14T02:06:00;98806.75;;;4.47;100.00
57114;BME280;42994;51.606;9.988;2023-12-14T02:08:29;98821.56;;;4.49;100.00
57114;BME280;42994;51.606;9.988;2023-12-14T02:10:56;98809.03;;;4.41;100.00
57114;BME280;42994;51.606;9.988;2023-12-14T02:13:23;98817.84;;;4.42;100.00
57114;BME280;42994;51.606;9.988;2023-12-14T02:15:51;98823.00;;;4.43;100.00
57114;BME280;42994;51.606;9.988;2023-12-14T02:18:19;98829.69;;;4.56;100.00
57114;BME280;42994;51.606;9.988;2023-12-14T02:20:46;98834.25;;;4.37;100.00
57114;BME280;42994;51.606;9.988;2023-12-14T02:23:14;98838.84;;;4.27;100.00
57114;BME280;42994;51.606;9.988;2023-12-14T02:25:40;98834.81;;;4.23;100.00
57114;BME280;42994;51.606;9.988;2023-12-14T02:28:08;98846.72;;;4.19;100.00
57114;BME280;42994;51.606;9.988;2023-12-14T02:30:36;98843.63;;;4.23;100.00
57114;BME280;42994;51.606;9.988;2023-12-14T02:33:03;98842.91;;;4.21;100.00
57114;BME280;42994;51.606;9.988;2023-12-14T02:35:31;98855.72;;;4.26;100.00
57114;BME280;42994;51.606;9.988;2023-12-14T02:37:57;98848.56;;;4.00;100.00
57114;BME280;42994;51.606;9.988;2023-12-14T02:40:26;98849.22;;;4.20;100.00
57114;BME280;42994;51.606;9.988;2023-12-14T02:42:53;98859.34;;;4.25;100.00
57114;BME280;42994;51.606;9.988;2023-12-14T02:45:20;98865.38;;;4.27;100.00
57114;BME280;42994;51.606;9.988;2023-12-14T02:47:47;98866.38;;;4.34;100.00
57114;BME280;42994;51.606;9.988;2023-12-14T02:50:15;98869.56;;;4.38;100.00
57114;BME280;42994;51.606;9.988;2023-12-14T02:52:44;98862.81;;;4.43;100.00
57114;BME280;42994;51.606;9.988;2023-12-14T02:55:10;98865.81;;;4.49;100.00
57114;BME280;42994;51.606;9.988;2023-12-14T02:57:39;98854.22;;;4.50;100.00
57114;BME280;42994;51.606;9.988;2023-12-14T03:00:07;98861.88;;;4.53;100.00
57114;BME280;42994;51.606;9.988;2023-12-14T03:02:34;98876.75;;;4.46;100.00
57114;BME280;42994;51.606;9.988;2023-12-14T03:05:00;98873.16;;;4.29;100.00
57114;BME280;42994;51.606;9.988;2023-12-14T03:07:28;98878.81;;;4.08;100.00
57114;BME280;42994;51.606;9.988;2023-12-14T03:09:55;98873.88;;;4.13;100.00
57114;BME280;42994;51.606;9.988;2023-12-14T03:12:22;98881.84;;;4.13;100.00
57114;BME280;42994;51.606;9.988;2023-12-14T03:14:50;98894.19;;;3.86;100.00
57114;BME280;42994;51.606;9.988;2023-12-14T03:17:16;98899.19;;;4.07;100.00
57114;BME280;42994;51.606;9.988;2023-12-14T03:19:44;98894.72;;;4.08;100.00
57114;BME280;42994;51.606;9.988;2023-12-14T03:22:11;98904.66;;;4.06;100.00
57114;BME280;42994;51.606;9.988;2023-12-14T03:24:38;98915.31;;;3.96;100.00
57114;BME280;42994;51.606;9.988;2023-12-14T03:27:05;98921.50;;;3.69;100.00
57114;BME280;42994;51.606;9.988;2023-12-14T03:29:31;98935.66;;;3.87;100.00
57114;BME280;42994;51.606;9.988;2023-12-14T03:32:00;98937.13;;;3.72;100.00
57114;BME280;42994;51.606;9.988;2023-12-14T03:34:27;98941.13;;;3.58;100.00
57114;BME280;42994;51.606;9.988;2023-12-14T03:36:54;98948.38;;;3.83;100.00
57114;BME280;42994;51.606;9.988;2023-12-14T03:39:21;98955.41;;;3.75;100.00
57114;BME280;42994;51.606;9.988;2023-12-14T03:41:48;98964.75;;;3.97;100.00
57114;BME280;42994;51.606;9.988;2023-12-14T03:44:14;98953.81;;;3.82;100.00
57114;BME280;42994;51.606;9.988;2023-12-14T03:46:41;98978.91;;;4.06;100.00
57114;BME280;42994;51.606;9.988;2023-12-14T03:49:09;98972.88;;;3.68;100.00
57114;BME280;42994;51.606;9.988;2023-12-14T03:51:36;98973.16;;;3.64;100.00
57114;BME280;42994;51.606;9.988;2023-12-14T03:54:02;98992.31;;;3.86;100.00
57114;BME280;42994;51.606;9.988;2023-12-14T03:56:29;98984.50;;;3.84;100.00
57114;BME280;42994;51.606;9.988;2023-12-14T03:58:56;98982.88;;;3.74;100.00
57114;BME280;42994;51.606;9.988;2023-12-14T04:01:23;98993.47;;;3.74;100.00
57114;BME280;42994;51.606;9.988;2023-12-14T04:03:50;99002.38;;;3.82;100.00
57114;BME280;42994;51.606;9.988;2023-12-14T04:06:18;99002.03;;;3.68;100.00
57114;BME280;42994;51.606;9.988;2023-12-14T04:08:44;99013.63;;;3.94;100.00
57114;BME280;42994;51.606;9.988;2023-12-14T04:11:11;99005.34;;;3.97;100.00
57114;BME280;42994;51.606;9.988;2023-12-14T04:13:38;98999.38;;;3.68;100.00
57114;BME280;42994;51.606;9.988;2023-12-14T04:16:06;98997.16;;;3.63;100.00
57114;BME280;42994;51.606;9.988;2023-12-14T04:18:33;99000.97;;;3.60;100.00
57114;BME280;42994;51.606;9.988;2023-12-14T04:21:00;99009.06;;;3.59;100.00
57114;BME280;42994;51.606;9.988;2023-12-14T04:23:28;99027.69;;;3.39;100.00
57114;BME280;42994;51.606;9.988;2023-12-14T04:25:54;99035.16;;;3.54;100.00
57114;BME280;42994;51.606;9.988;2023-12-14T04:28:21;99044.25;;;3.51;100.00
57114;BME280;42994;51.606;9.988;2023-12-14T04:30:48;99057.22;;;3.44;100.00
57114;BME280;42994;51.606;9.988;2023-12-14T04:33:14;99062.09;;;3.49;100.00
57114;BME280;42994;51.606;9.988;2023-12-14T04:35:42;99090.63;;;3.65;100.00
57114;BME280;42994;51.606;9.988;2023-12-14T04:38:09;99090.63;;;3.27;100.00
57114;BME280;42994;51.606;9.988;2023-12-14T04:40:37;99085.91;;;3.12;100.00
57114;BME280;42994;51.606;9.988;2023-12-14T04:43:04;99095.09;;;3.17;100.00
57114;BME280;42994;51.606;9.988;2023-12-14T04:45:30;99095.53;;;3.03;100.00
57114;BME280;42994;51.606;9.988;2023-12-14T04:47:57;99112.78;;;3.26;100.00
57114;BME280;42994;51.606;9.988;2023-12-14T04:50:24;99116.84;;;3.31;100.00
57114;BME280;42994;51.606;9.988;2023-12-14T04:52:50;99116.13;;;3.19;100.00
57114;BME280;42994;51.606;9.988;2023-12-14T04:55:17;99118.94;;;3.17;100.00
57114;BME280;42994;51.606;9.988;2023-12-14T04:57:45;99122.81;;;3.23;100.00
57114;BME280;42994;51.606;9.988;2023-12-14T05:00:15;99122.72;;;3.05;100.00
57114;BME280;42994;51.606;9.988;2023-12-14T05:02:46;99136.25;;;3.02;100.00
57114;BME280;42994;51.606;9.988;2023-12-14T05:05:13;99143.31;;;3.21;100.00
57114;BME280;42994;51.606;9.988;2023-12-14T05:07:40;99161.72;;;3.22;100.00
57114;BME280;42994;51.606;9.988;2023-12-14T05:10:07;99169.13;;;3.09;100.00
57114;BME280;42994;51.606;9.988;2023-12-14T05:12:35;99171.66;;;3.11;100.00
57114;BME280;42994;51.606;9.988;2023-12-14T05:15:04;99180.84;;;3.16;100.00
57114;BME280;42994;51.606;9.988;2023-12-14T05:17:30;99184.75;;;3.22;100.00
57114;BME280;42994;51.606;9.988;2023-12-14T05:19:57;99199.53;;;3.15;100.00
57114;BME280;42994;51.606;9.988;2023-12-14T05:22:24;99195.88;;;3.06;100.00
57114;BME280;42994;51.606;9.988;2023-12-14T05:24:51;99196.03;;;3.04;100.00
57114;BME280;42994;51.606;9.988;2023-12-14T05:27:17;99188.94;;;3.15;100.00
57114;BME280;42994;51.606;9.988;2023-12-14T05:29:44;99208.28;;;3.35;100.00
57114;BME280;42994;51.606;9.988;2023-12-14T05:32:12;99193.09;;;3.17;100.00
57114;BME280;42994;51.606;9.988;2023-12-14T05:34:39;99205.22;;;3.00;100.00
57114;BME280;42994;51.606;9.988;2023-12-14T05:37:05;99209.69;;;3.19;100.00
57114;BME280;42994;51.606;9.988;2023-12-14T05:39:32;99226.28;;;3.02;100.00
57114;BME280;42994;51.606;9.988;2023-12-14T05:41:59;99227.81;;;3.04;100.00
57114;BME280;42994;51.606;9.988;2023-12-14T05:44:26;99233.25;;;3.22;100.00
57114;BME280;42994;51.606;9.988;2023-12-14T05:46:52;99244.53;;;3.15;100.00
57114;BME280;42994;51.606;9.988;2023-12-14T05:49:20;99239.91;;;2.87;100.00
57114;BME280;42994;51.606;9.988;2023-12-14T05:51:47;99246.97;;;2.67;100.00
57114;BME280;42994;51.606;9.988;2023-12-14T05:54:14;99271.53;;;2.79;100.00
57114;BME280;42994;51.606;9.988;2023-12-14T05:56:40;99285.09;;;2.96;100.00
57114;BME280;42994;51.606;9.988;2023-12-14T05:59:07;99263.59;;;2.89;100.00
57114;BME280;42994;51.606;9.988;2023-12-14T06:01:34;99275.25;;;2.67;100.00
57114;BME280;42994;51.606;9.988;2023-12-14T06:04:00;99299.03;;;2.98;100.00
57114;BME280;42994;51.606;9.988;2023-12-14T06:06:29;99292.34;;;3.03;100.00
57114;BME280;42994;51.606;9.988;2023-12-14T06:08:55;99292.88;;;2.87;100.00
57114;BME280;42994;51.606;9.988;2023-12-14T06:11:22;99315.81;;;2.77;100.00
57114;BME280;42994;51.606;9.988;2023-12-14T06:13:49;99310.97;;;2.82;100.00
57114;BME280;42994;51.606;9.988;2023-12-14T06:16:15;99304.38;;;2.67;100.00
57114;BME280;42994;51.606;9.988;2023-12-14T06:18:42;99316.56;;;2.89;100.00
57114;BME280;42994;51.606;9.988;2023-12-14T06:21:11;99327.75;;;2.62;100.00
57114;BME280;42994;51.606;9.988;2023-12-14T06:23:39;99319.47;;;2.45;100.00
57114;BME280;42994;51.606;9.988;2023-12-14T06:26:06;99318.75;;;2.74;100.00
57114;BME280;42994;51.606;9.988;2023-12-14T06:28:32;99338.81;;;2.77;100.00
57114;BME280;42994;51.606;9.988;2023-12-14T06:30:59;99338.00;;;2.86;100.00
57114;BME280;42994;51.606;9.988;2023-12-14T06:33:27;99347.44;;;2.79;100.00
57114;BME280;42994;51.606;9.988;2023-12-14T06:35:54;99355.97;;;2.82;100.00
57114;BME280;42994;51.606;9.988;2023-12-14T06:38:20;99358.34;;;2.85;100.00
57114;BME280;42994;51.606;9.988;2023-12-14T06:40:48;99368.00;;;2.96;100.00
57114;BME280;42994;51.606;9.988;2023-12-14T06:43:15;99358.59;;;2.73;100.00
57114;BME280;42994;51.606;9.988;2023-12-14T06:45:42;99357.56;;;2.64;100.00
57114;BME280;42994;51.606;9.988;2023-12-14T06:48:08;99371.69;;;2.74;100.00
57114;BME280;42994;51.606;9.988;2023-12-14T06:50:35;99367.78;;;2.68;100.00
57114;BME280;42994;51.606;9.988;2023-12-14T06:53:02;99372.84;;;2.81;100.00
57114;BME280;42994;51.606;9.988;2023-12-14T06:55:29;99371.50;;;2.97;100.00
57114;BME280;42994;51.606;9.988;2023-12-14T06:57:57;99371.91;;;2.92;100.00
57114;BME280;42994;51.606;9.988;2023-12-14T07:00:24;99392.13;;;3.03;100.00
57114;BME280;42994;51.606;9.988;2023-12-14T07:02:50;99384.13;;;2.83;100.00
57114;BME280;42994;51.606;9.988;2023-12-14T07:05:17;99391.09;;;2.84;100.00
57114;BME280;42994;51.606;9.988;2023-12-14T07:07:43;99389.09;;;2.77;100.00
57114;BME280;42994;51.606;9.988;2023-12-14T07:10:13;99412.97;;;2.86;100.00
57114;BME280;42994;51.606;9.988;2023-12-14T07:12:42;99398.25;;;2.63;100.00
57114;BME280;42994;51.606;9.988;2023-12-14T07:15:10;99397.81;;;2.58;100.00
57114;BME280;42994;51.606;9.988;2023-12-14T07:17:37;99410.03;;;2.59;100.00
57114;BME280;42994;51.606;9.988;2023-12-14T07:20:05;99428.66;;;2.68;100.00
57114;BME280;42994;51.606;9.988;2023-12-14T07:22:32;99419.00;;;2.67;100.00
57114;BME280;42994;51.606;9.988;2023-12-14T07:24:58;99436.72;;;2.67;100.00
57114;BME280;42994;51.606;9.988;2023-12-14T07:27:25;99430.50;;;2.78;100.00
57114;BME280;42994;51.606;9.988;2023-12-14T07:29:52;99440.97;;;2.58;100.00
57114;BME280;42994;51.606;9.988;2023-12-14T07:32:20;99440.84;;;2.39;100.00
57114;BME280;42994;51.606;9.988;2023-12-14T07:34:47;99473.50;;;2.49;100.00
57114;BME280;42994;51.606;9.988;2023-12-14T07:37:14;99477.25;;;2.46;100.00
57114;BME280;42994;51.606;9.988;2023-12-14T07:39:40;99489.63;;;2.46;100.00
57114;BME280;42994;51.606;9.988;2023-12-14T07:42:07;99487.00;;;2.67;100.00
57114;BME280;42994;51.606;9.988;2023-12-14T07:44:34;99498.94;;;2.61;100.00
57114;BME280;42994;51.606;9.988;2023-12-14T07:47:01;99506.38;;;2.88;100.00
57114;BME280;42994;51.606;9.988;2023-12-14T07:49:30;99489.91;;;2.64;100.00
57114;BME280;42994;51.606;9.988;2023-12-14T07:51:56;99508.94;;;2.58;100.00
57114;BME280;42994;51.606;9.988;2023-12-14T07:54:23;99510.34;;;2.83;100.00
57114;BME280;42994;51.606;9.988;2023-12-14T07:56:52;99507.25;;;2.99;100.00
57114;BME280;42994;51.606;9.988;2023-12-14T07:59:18;99515.16;;;2.89;100.00
57114;BME280;42994;51.606;9.988;2023-12-14T08:01:46;99515.53;;;2.84;100.00
57114;BME280;42994;51.606;9.988;2023-12-14T08:04:12;99513.56;;;2.86;100.00
57114;BME280;42994;51.606;9.988;2023-12-14T08:06:40;99523.28;;;2.76;100.00
57114;BME280;42994;51.606;9.988;2023-12-14T08:09:07;99533.34;;;2.82;100.00
57114;BME280;42994;51.606;9.988;2023-12-14T08:11:34;99540.66;;;2.69;100.00
57114;BME280;42994;51.606;9.988;2023-12-14T08:14:00;99551.06;;;2.82;100.00
57114;BME280;42994;51.606;9.988;2023-12-14T08:16:28;99554.53;;;2.82;100.00
57114;BME280;42994;51.606;9.988;2023-12-14T08:18:55;99561.59;;;2.72;100.00
57114;BME280;42994;51.606;9.988;2023-12-14T08:21:21;99575.59;;;2.52;100.00
57114;BME280;42994;51.606;9.988;2023-12-14T08:23:49;99569.00;;;2.46;100.00
57114;BME280;42994;51.606;9.988;2023-12-14T08:26:16;99577.38;;;2.30;100.00
57114;BME280;42994;51.606;9.988;2023-12-14T08:28:43;99598.47;;;2.53;100.00
57114;BME280;42994;51.606;9.988;2023-12-14T08:31:09;99621.31;;;2.54;100.00
57114;BME280;42994;51.606;9.988;2023-12-14T08:33:37;99623.13;;;2.53;100.00
57114;BME280;42994;51.606;9.988;2023-12-14T08:36:04;99629.06;;;2.66;100.00
57114;BME280;42994;51.606;9.988;2023-12-14T08:38:31;99629.97;;;2.56;100.00
57114;BME280;42994;51.606;9.988;2023-12-14T08:40:59;99640.00;;;2.29;100.00
57114;BME280;42994;51.606;9.988;2023-12-14T08:43:26;99645.31;;;2.29;100.00
57114;BME280;42994;51.606;9.988;2023-12-14T08:45:53;99662.25;;;2.38;100.00
57114;BME280;42994;51.606;9.988;2023-12-14T08:48:20;99652.41;;;2.29;100.00
57114;BME280;42994;51.606;9.988;2023-12-14T08:50:46;99680.53;;;2.41;100.00
57114;BME280;42994;51.606;9.988;2023-12-14T08:53:13;99680.53;;;2.41;100.00
57114;BME280;42994;51.606;9.988;2023-12-14T08:55:40;99694.69;;;2.52;100.00
57114;BME280;42994;51.606;9.988;2023-12-14T08:58:08;99704.69;;;2.48;100.00
57114;BME280;42994;51.606;9.988;2023-12-14T09:00:34;99701.81;;;2.40;100.00
57114;BME280;42994;51.606;9.988;2023-12-14T09:03:01;99708.19;;;2.15;100.00
57114;BME280;42994;51.606;9.988;2023-12-14T09:05:27;99743.56;;;2.14;100.00
57114;BME280;42994;51.606;9.988;2023-12-14T09:07:54;99744.75;;;2.21;100.00
57114;BME280;42994;51.606;9.988;2023-12-14T09:10:21;99763.72;;;2.37;100.00
57114;BME280;42994;51.606;9.988;2023-12-14T09:12:48;99767.84;;;2.41;100.00
57114;BME280;42994;51.606;9.988;2023-12-14T09:15:16;99780.22;;;2.41;100.00
57114;BME280;42994;51.606;9.988;2023-12-14T09:17:43;99787.31;;;2.40;100.00
57114;BME280;42994;51.606;9.988;2023-12-14T09:20:10;99787.81;;;2.34;100.00
57114;BME280;42994;51.606;9.988;2023-12-14T09:22:37;99769.91;;;2.26;100.00
57114;BME280;42994;51.606;9.988;2023-12-14T09:25:05;99798.03;;;2.27;100.00
57114;BME280;42994;51.606;9.988;2023-12-14T09:27:34;99799.56;;;2.19;100.00
57114;BME280;42994;51.606;9.988;2023-12-14T09:30:01;99804.63;;;2.22;100.00
57114;BME280;42994;51.606;9.988;2023-12-14T09:32:29;99812.72;;;2.43;100.00
57114;BME280;42994;51.606;9.988;2023-12-14T09:34:55;99823.25;;;2.31;100.00
57114;BME280;42994;51.606;9.988;2023-12-14T09:37:22;99835.31;;;2.36;100.00
57114;BME280;42994;51.606;9.988;2023-12-14T09:39:49;99831.47;;;2.51;100.00
57114;BME280;42994;51.606;9.988;2023-12-14T09:42:18;99847.13;;;2.43;100.00
57114;BME280;42994;51.606;9.988;2023-12-14T09:44:46;99841.06;;;2.29;100.00
57114;BME280;42994;51.606;9.988;2023-12-14T09:47:13;99831.56;;;2.27;100.00
57114;BME280;42994;51.606;9.988;2023-12-14T09:49:42;99852.75;;;2.38;100.00
57114;BME280;42994;51.606;9.988;2023-12-14T09:52:09;99849.16;;;2.39;100.00
57114;BME280;42994;51.606;9.988;2023-12-14T09:54:36;99850.22;;;2.37;100.00
57114;BME280;42994;51.606;9.988;2023-12-14T09:57:03;99849.00;;;2.29;100.00
57114;BME280;42994;51.606;9.988;2023-12-14T09:59:30;99853.25;;;2.43;100.00
57114;BME280;42994;51.606;9.988;2023-12-14T10:02:08;99855.63;;;2.35;100.00
57114;BME280;42994;51.606;9.988;2023-12-14T10:04:35;99868.13;;;2.33;100.00
57114;BME280;42994;51.606;9.988;2023-12-14T10:07:03;99869.09;;;2.32;100.00
57114;BME280;42994;51.606;9.988;2023-12-14T10:09:32;99855.63;;;2.35;100.00
57114;BME280;42994;51.606;9.988;2023-12-14T10:12:02;99871.75;;;2.32;100.00
57114;BME280;42994;51.606;9.988;2023-12-14T10:14:30;99870.56;;;2.47;100.00
57114;BME280;42994;51.606;9.988;2023-12-14T10:16:58;99863.31;;;2.38;100.00
57114;BME280;42994;51.606;9.988;2023-12-14T10:19:24;99872.22;;;2.37;100.00
57114;BME280;42994;51.606;9.988;2023-12-14T10:21:51;99879.09;;;2.40;100.00
57114;BME280;42994;51.606;9.988;2023-12-14T10:24:19;99851.19;;;2.47;100.00
57114;BME280;42994;51.606;9.988;2023-12-14T10:26:46;99880.91;;;2.50;100.00
57114;BME280;42994;51.606;9.988;2023-12-14T10:29:13;99886.19;;;2.39;100.00
57114;BME280;42994;51.606;9.988;2023-12-14T10:31:40;99897.59;;;2.28;100.00
57114;BME280;42994;51.606;9.988;2023-12-14T10:34:06;99888.44;;;2.21;100.00
57114;BME280;42994;51.606;9.988;2023-12-14T10:36:34;99892.63;;;2.13;100.00
57114;BME280;42994;51.606;9.988;2023-12-14T10:39:02;99891.16;;;2.08;100.00
57114;BME280;42994;51.606;9.988;2023-12-14T10:41:33;99907.06;;;2.20;100.00
57114;BME280;42994;51.606;9.988;2023-12-14T10:44:00;99906.84;;;2.23;100.00
57114;BME280;42994;51.606;9.988;2023-12-14T10:46:28;99900.38;;;2.38;100.00
57114;BME280;42994;51.606;9.988;2023-12-14T10:48:54;99895.09;;;2.49;100.00
57114;BME280;42994;51.606;9.988;2023-12-14T10:51:23;99914.59;;;2.60;100.00
57114;BME280;42994;51.606;9.988;2023-12-14T10:53:51;99901.81;;;2.42;100.00
57114;BME280;42994;51.606;9.988;2023-12-14T10:56:19;99905.56;;;2.40;100.00
57114;BME280;42994;51.606;9.988;2023-12-14T10:58:48;99901.81;;;2.54;100.00
57114;BME280;42994;51.606;9.988;2023-12-14T11:01:19;99902.81;;;2.53;100.00
57114;BME280;42994;51.606;9.988;2023-12-14T11:03:47;99897.78;;;2.72;100.00
57114;BME280;42994;51.606;9.988;2023-12-14T11:06:26;99905.47;;;2.64;100.00
57114;BME280;42994;51.606;9.988;2023-12-14T11:08:56;99904.38;;;2.55;100.00
57114;BME280;42994;51.606;9.988;2023-12-14T11:11:28;99912.91;;;2.47;100.00
57114;BME280;42994;51.606;9.988;2023-12-14T11:13:56;99906.88;;;2.34;100.00
57114;BME280;42994;51.606;9.988;2023-12-14T11:16:26;99923.09;;;2.41;100.00
57114;BME280;42994;51.606;9.988;2023-12-14T11:19:23;99925.63;;;2.42;100.00
57114;BME280;42994;51.606;9.988;2023-12-14T11:22:09;99927.34;;;2.55;100.00
57114;BME280;42994;51.606;9.988;2023-12-14T11:24:36;99919.41;;;2.43;100.00
57114;BME280;42994;51.606;9.988;2023-12-14T11:27:04;99935.03;;;2.46;100.00
57114;BME280;42994;51.606;9.988;2023-12-14T11:29:32;99944.25;;;2.41;100.00
57114;BME280;42994;51.606;9.988;2023-12-14T11:31:59;99942.59;;;2.40;100.00
57114;BME280;42994;51.606;9.988;2023-12-14T11:34:25;99955.84;;;2.51;100.00
57114;BME280;42994;51.606;9.988;2023-12-14T11:36:53;99946.16;;;2.63;100.00
57114;BME280;42994;51.606;9.988;2023-12-14T11:39:20;99958.03;;;2.57;100.00
57114;BME280;42994;51.606;9.988;2023-12-14T11:41:58;99961.66;;;2.56;100.00
57114;BME280;42994;51.606;9.988;2023-12-14T11:44:25;99941.81;;;2.62;100.00
57114;BME280;42994;51.606;9.988;2023-12-14T11:46:53;99979.97;;;2.71;100.00
57114;BME280;42994;51.606;9.988;2023-12-14T11:49:20;99958.38;;;2.41;100.00
57114;BME280;42994;51.606;9.988;2023-12-14T11:51:47;99972.00;;;2.24;100.00
57114;BME280;42994;51.606;9.988;2023-12-14T11:54:13;99972.59;;;2.16;100.00
57114;BME280;42994;51.606;9.988;2023-12-14T11:56:45;99988.41;;;2.40;100.00
57114;BME280;42994;51.606;9.988;2023-12-14T11:59:12;99980.88;;;2.47;100.00
57114;BME280;42994;51.606;9.988;2023-12-14T12:01:39;99978.03;;;2.26;100.00
57114;BME280;42994;51.606;9.988;2023-12-14T12:04:09;99997.06;;;2.42;100.00
57114;BME280;42994;51.606;9.988;2023-12-14T12:06:36;100002.63;;;2.39;100.00
57114;BME280;42994;51.606;9.988;2023-12-14T12:09:03;100001.03;;;2.37;100.00
57114;BME280;42994;51.606;9.988;2023-12-14T12:11:33;100009.19;;;2.34;100.00
57114;BME280;42994;51.606;9.988;2023-12-14T12:14:00;100002.66;;;2.50;100.00
57114;BME280;42994;51.606;9.988;2023-12-14T12:16:26;99999.50;;;2.45;100.00
57114;BME280;42994;51.606;9.988;2023-12-14T12:18:53;100008.25;;;2.35;100.00
57114;BME280;42994;51.606;9.988;2023-12-14T12:21:21;100012.03;;;2.55;100.00
57114;BME280;42994;51.606;9.988;2023-12-14T12:23:48;100017.88;;;2.36;100.00
57114;BME280;42994;51.606;9.988;2023-12-14T12:26:14;100015.16;;;2.48;100.00
57114;BME280;42994;51.606;9.988;2023-12-14T12:28:41;100012.34;;;2.39;100.00
57114;BME280;42994;51.606;9.988;2023-12-14T12:31:08;100016.78;;;2.38;100.00
57114;BME280;42994;51.606;9.988;2023-12-14T12:33:34;100025.41;;;2.29;100.00
57114;BME280;42994;51.606;9.988;2023-12-14T12:36:03;100030.97;;;2.37;100.00
57114;BME280;42994;51.606;9.988;2023-12-14T12:38:32;100031.03;;;2.24;100.00
57114;BME280;42994;51.606;9.988;2023-12-14T12:40:58;100030.72;;;2.29;100.00
57114;BME280;42994;51.606;9.988;2023-12-14T12:43:26;100049.63;;;2.36;100.00
57114;BME280;42994;51.606;9.988;2023-12-14T12:45:53;100042.03;;;2.31;100.00
57114;BME280;42994;51.606;9.988;2023-12-14T12:48:19;100038.44;;;2.32;100.00
57114;BME280;42994;51.606;9.988;2023-12-14T12:50:46;100045.19;;;2.36;100.00
57114;BME280;42994;51.606;9.988;2023-12-14T12:53:12;100051.69;;;2.43;100.00
57114;BME280;42994;51.606;9.988;2023-12-14T12:55:41;100054.00;;;2.48;100.00
57114;BME280;42994;51.606;9.988;2023-12-14T12:58:07;100060.97;;;2.49;100.00
57114;BME280;42994;51.606;9.988;2023-12-14T13:00:34;100060.97;;;2.49;100.00